Time;durP1;ratioP1;P1;durP2;ratioP2;P2;SDS_P1;SDS_P2;PMS_P1;PMS_P2;Temp;Humidity;BMP_temperature;BMP_pressure;BME280_temperature;BME280_humidity;BME280_pressure;Samples;Min_cycle;Max_cycle;Signal;HPM_P1;HPM_P2
2023/03/01 00:01:09;;;;;;;29.88;18.13;;;-1.10;66.70;;;;;;5053082;28;20112;-74
2023/03/01 00:03:34;;;;;;;31.63;18.17;;;-1.10;66.60;;;;;;5053178;28;20028;-74
2023/03/01 00:06:01;;;;;;;32.35;19.25;;;-1.20;66.30;;;;;;5052682;28;20460;-74
2023/03/01 00:08:27;;;;;;;27.27;17.60;;;-1.20;66.20;;;;;;5035084;28;20057;-74
2023/03/01 00:11:10;;;;;;;28.80;18.60;;;-1.30;66.20;;;;;;5052797;28;20190;-74
2023/03/01 00:13:36;;;;;;;29.13;18.05;;;-1.30;66.80;;;;;;5053108;28;20033;-74
2023/03/01 00:16:03;;;;;;;26.23;18.35;;;-1.30;67.00;;;;;;5052813;28;20053;-75
2023/03/01 00:18:29;;;;;;;27.10;17.08;;;-1.30;66.90;;;;;;5052829;28;20106;-74
2023/03/01 00:20:55;;;;;;;27.77;17.95;;;-1.30;66.90;;;;;;5052730;28;20112;-75
2023/03/01 00:23:22;;;;;;;28.15;18.13;;;-1.30;66.70;;;;;;5052798;28;20167;-74
2023/03/01 00:25:48;;;;;;;31.90;19.00;;;-1.30;66.60;;;;;;5053135;28;20032;-74
2023/03/01 00:28:14;;;;;;;30.30;19.48;;;-1.30;66.70;;;;;;5056156;28;20025;-74
2023/03/01 00:30:40;;;;;;;29.58;19.20;;;-1.40;67.10;;;;;;5053393;28;20416;-74
2023/03/01 00:33:05;;;;;;;31.35;19.30;;;-1.50;67.00;;;;;;5054099;28;20041;-74
2023/03/01 00:35:33;;;;;;;28.88;18.88;;;-1.60;67.10;;;;;;5052978;28;20024;-74
2023/03/01 00:37:58;;;;;;;30.90;19.92;;;-1.60;67.50;;;;;;5052661;28;20064;-74
2023/03/01 00:40:25;;;;;;;32.53;20.83;;;-1.60;67.50;;;;;;5034982;28;20504;-75
2023/03/01 00:42:50;;;;;;;30.38;19.08;;;-1.60;67.30;;;;;;5052706;28;20025;-74
2023/03/01 00:45:17;;;;;;;31.80;19.92;;;-1.70;67.20;;;;;;5052564;28;20024;-74
2023/03/01 00:47:42;;;;;;;31.65;20.20;;;-1.70;67.50;;;;;;5052124;28;20092;-74
2023/03/01 00:50:09;;;;;;;31.30;18.83;;;-1.70;67.60;;;;;;5052588;28;20060;-74
2023/03/01 00:52:35;;;;;;;27.95;18.67;;;-1.70;68.20;;;;;;5052443;28;20045;-75
2023/03/01 00:55:00;;;;;;;32.75;20.52;;;-1.70;67.40;;;;;;5052468;28;20580;-75
2023/03/01 00:57:26;;;;;;;35.25;19.83;;;-1.70;67.60;;;;;;5052626;28;20033;-74
2023/03/01 00:59:52;;;;;;;31.60;20.20;;;-1.60;67.70;;;;;;5051838;28;20025;-74
2023/03/01 01:02:18;;;;;;;37.45;21.27;;;-1.60;67.40;;;;;;5052274;28;20104;-74
2023/03/01 01:04:44;;;;;;;30.30;18.95;;;-1.60;67.60;;;;;;5052126;28;20465;-74
2023/03/01 01:07:10;;;;;;;27.85;18.63;;;-1.70;67.50;;;;;;5052355;28;20096;-74
2023/03/01 01:09:36;;;;;;;30.00;18.42;;;-1.60;67.50;;;;;;5052386;28;20025;-74
2023/03/01 01:12:02;;;;;;;27.13;18.83;;;-1.60;67.20;;;;;;5052293;28;20029;-74
2023/03/01 01:14:28;;;;;;;31.98;19.40;;;-1.60;67.10;;;;;;5034437;28;20028;-74
2023/03/01 01:16:53;;;;;;;28.63;18.90;;;-1.60;67.10;;;;;;5053668;28;20021;-73
2023/03/01 01:19:19;;;;;;;35.97;23.83;;;-1.50;67.40;;;;;;5055806;28;20128;-74
2023/03/01 01:21:45;;;;;;;35.70;23.55;;;-1.50;67.60;;;;;;5056074;28;20096;-74
2023/03/01 01:24:11;;;;;;;36.47;23.13;;;-1.50;67.90;;;;;;5055923;28;20057;-74
2023/03/01 01:26:37;;;;;;;36.10;22.90;;;-1.50;67.90;;;;;;5055896;28;20410;-74
2023/03/01 01:29:04;;;;;;;33.42;22.00;;;-1.40;68.00;;;;;;5056115;28;20382;-74
2023/03/01 01:31:32;;;;;;;34.50;22.35;;;-1.40;67.90;;;;;;5055788;28;20029;-76
2023/03/01 01:33:59;;;;;;;39.50;25.20;;;-1.30;68.00;;;;;;5055761;28;20489;-74
2023/03/01 01:36:24;;;;;;;41.55;25.27;;;-1.30;67.80;;;;;;5055432;28;20025;-74
2023/03/01 01:38:50;;;;;;;37.60;23.30;;;-1.30;68.10;;;;;;5055954;28;20370;-74
2023/03/01 01:41:16;;;;;;;36.05;23.17;;;-1.20;68.30;;;;;;5055870;28;20036;-74
2023/03/01 01:43:48;;;;;;;41.08;24.27;;;-1.20;68.50;;;;;;5037760;28;20017;-74
2023/03/01 01:46:28;;;;;;;38.63;23.40;;;-1.10;68.50;;;;;;5055748;28;20107;-74
2023/03/01 01:49:04;;;;;;;39.92;24.30;;;-1.10;68.30;;;;;;5055557;28;20029;-74
2023/03/01 01:51:38;;;;;;;36.50;23.80;;;-1.00;68.10;;;;;;5055493;28;20517;-73
2023/03/01 01:54:08;;;;;;;36.38;23.55;;;-0.90;67.90;;;;;;5055484;28;20021;-74
2023/03/01 01:56:34;;;;;;;36.35;22.10;;;-0.90;67.70;;;;;;5055501;28;20104;-74
2023/03/01 01:59:01;;;;;;;35.30;23.48;;;-0.90;67.50;;;;;;5055623;28;20052;-74
2023/03/01 02:01:26;;;;;;;36.15;23.98;;;-0.80;67.40;;;;;;5037453;28;20112;-74
2023/03/01 02:03:52;;;;;;;39.17;24.92;;;-0.90;67.50;;;;;;5055483;28;20048;-74
2023/03/01 02:06:28;;;;;;;35.70;22.92;;;-0.80;67.60;;;;;;5055344;28;20021;-74
2023/03/01 02:08:59;;;;;;;39.28;24.48;;;-0.80;67.80;;;;;;5055286;28;20184;-74
2023/03/01 02:11:25;;;;;;;36.53;23.15;;;-0.80;68.00;;;;;;5055352;28;20021;-75
2023/03/01 02:13:53;;;;;;;41.65;25.40;;;-0.80;68.10;;;;;;5055184;28;20033;-74
2023/03/01 02:16:18;;;;;;;44.55;26.52;;;-0.80;68.20;;;;;;5055187;28;20318;-74
2023/03/01 02:18:44;;;;;;;41.38;26.52;;;-0.80;68.40;;;;;;5036870;28;20049;-75
2023/03/01 02:21:33;;;;;;;41.10;26.48;;;-0.80;69.10;;;;;;5055060;28;20052;-74
2023/03/01 02:24:10;;;;;;;37.63;25.02;;;-0.90;69.40;;;;;;5054899;28;20017;-75
2023/03/01 02:27:02;;;;;;;42.92;27.33;;;-0.90;69.70;;;;;;5054272;28;20059;-79
2023/03/01 02:29:28;;;;;;;41.00;25.92;;;-0.80;69.70;;;;;;5050781;28;20497;-80
2023/03/01 02:31:57;;;;;;;42.17;25.55;;;-0.80;69.80;;;;;;5036939;28;20116;-80
2023/03/01 02:34:25;;;;;;;39.80;26.10;;;-0.80;69.80;;;;;;5054900;28;20025;-79
2023/03/01 02:37:04;;;;;;;40.13;25.25;;;-0.90;69.80;;;;;;5054874;28;20025;-80
2023/03/01 02:39:37;;;;;;;41.33;25.63;;;-0.80;69.90;;;;;;5054494;28;20033;-79
2023/03/01 02:42:03;;;;;;;36.55;24.02;;;-0.80;69.80;;;;;;5054709;28;20021;-78
2023/03/01 02:44:29;;;;;;;40.38;26.20;;;-0.70;69.90;;;;;;5054369;28;20064;-78
2023/03/01 02:46:56;;;;;;;41.92;25.63;;;-0.70;70.00;;;;;;5054524;28;20044;-78
2023/03/01 02:49:31;;;;;;;41.60;26.55;;;-0.60;69.80;;;;;;5054374;28;20033;-80
2023/03/01 02:52:16;;;;;;;37.35;25.63;;;-0.60;69.60;;;;;;5054376;28;20029;-80
2023/03/01 02:54:51;;;;;;;37.90;24.70;;;-0.60;69.60;;;;;;5036098;28;20389;-79
2023/03/01 02:57:17;;;;;;;39.28;24.02;;;-0.50;69.70;;;;;;5053914;28;20024;-79
2023/03/01 02:59:43;;;;;;;41.22;25.20;;;-0.50;69.60;;;;;;5053825;28;20419;-80
2023/03/01 03:02:20;;;;;;;40.00;26.27;;;-0.40;69.50;;;;;;5054375;28;20100;-74
2023/03/01 03:04:46;;;;;;;40.50;26.35;;;-0.40;69.40;;;;;;5054169;28;20470;-74
2023/03/01 03:07:12;;;;;;;43.10;27.20;;;-0.50;69.50;;;;;;5054166;28;20025;-74
2023/03/01 03:09:37;;;;;;;44.95;26.55;;;-0.50;69.80;;;;;;5054129;28;20143;-74
2023/03/01 03:12:03;;;;;;;37.50;24.95;;;-0.60;70.10;;;;;;5053995;28;20036;-74
2023/03/01 03:14:29;;;;;;;40.15;25.98;;;-0.50;70.30;;;;;;5053990;28;20059;-74
2023/03/01 03:16:54;;;;;;;40.10;25.80;;;-0.50;70.20;;;;;;5036131;28;20025;-74
2023/03/01 03:19:20;;;;;;;43.00;25.85;;;-0.40;69.80;;;;;;5053800;28;20056;-74
2023/03/01 03:21:46;;;;;;;40.15;27.00;;;-0.40;69.90;;;;;;5053894;28;20013;-74
2023/03/01 03:24:12;;;;;;;44.47;27.40;;;-0.30;69.70;;;;;;5053835;28;20025;-74
2023/03/01 03:26:37;;;;;;;41.70;27.13;;;-0.30;69.40;;;;;;5053582;28;20067;-74
2023/03/01 03:29:03;;;;;;;40.63;27.15;;;-0.40;69.20;;;;;;5053555;28;20041;-74
2023/03/01 03:31:29;;;;;;;41.03;27.05;;;-0.40;69.20;;;;;;5053507;28;20025;-74
2023/03/01 03:33:54;;;;;;;44.28;28.58;;;-0.50;69.60;;;;;;5053603;28;20032;-74
2023/03/01 03:36:23;;;;;;;42.78;27.85;;;-0.60;70.30;;;;;;5053599;28;20040;-74
2023/03/01 03:38:48;;;;;;;39.50;26.52;;;-0.70;71.10;;;;;;5053175;28;20109;-78
2023/03/01 03:41:14;;;;;;;41.17;27.55;;;-0.60;71.40;;;;;;5053116;28;20048;-80
2023/03/01 03:43:42;;;;;;;37.22;25.30;;;-0.60;71.20;;;;;;5053496;28;20028;-80
2023/03/01 03:46:09;;;;;;;39.50;26.92;;;-0.50;70.70;;;;;;5035834;28;20175;-81
2023/03/01 03:48:38;;;;;;;40.90;27.08;;;-0.50;70.50;;;;;;5053569;28;20032;-81
2023/03/01 03:51:06;;;;;;;43.80;26.02;;;-0.40;70.60;;;;;;5053258;28;20028;-81
2023/03/01 03:53:33;;;;;;;38.25;24.90;;;-0.30;70.70;;;;;;5035382;28;20036;-81
2023/03/01 03:55:58;;;;;;;38.90;25.27;;;-0.30;70.30;;;;;;5053284;28;20032;-82
2023/03/01 03:58:25;;;;;;;38.72;24.98;;;-0.20;69.90;;;;;;5053207;28;20099;-74
2023/03/01 04:00:55;;;;;;;38.70;24.35;;;-0.20;69.60;;;;;;5053145;28;20028;-74
2023/03/01 04:03:21;;;;;;;38.30;24.63;;;-0.20;69.20;;;;;;5053149;28;20029;-73
2023/03/01 04:05:49;;;;;;;40.00;25.70;;;-0.20;69.20;;;;;;5053103;28;20062;-74
2023/03/01 04:08:15;;;;;;;40.92;25.60;;;-0.20;69.10;;;;;;5057328;28;20362;-74
2023/03/01 04:10:47;;;;;;;46.17;26.00;;;-0.10;69.30;;;;;;5054115;28;20024;-73
2023/03/01 04:13:15;;;;;;;41.30;25.55;;;-0.20;69.30;;;;;;5052972;28;20031;-82
2023/03/01 04:15:44;;;;;;;39.47;24.50;;;-0.20;69.50;;;;;;5053105;28;20017;-74
2023/03/01 04:18:14;;;;;;;39.78;25.08;;;-0.20;69.30;;;;;;5053025;28;20101;-74
2023/03/01 04:20:41;;;;;;;36.80;25.15;;;-0.10;69.20;;;;;;5053069;28;20351;-74
2023/03/01 04:23:20;;;;;;;43.80;27.05;;;-0.10;69.30;;;;;;5052750;28;20029;-74
2023/03/01 04:25:54;;;;;;;38.20;25.33;;;-0.10;69.20;;;;;;5051063;28;20025;-74
2023/03/01 04:28:34;;;;;;;39.38;24.75;;;-0.10;69.10;;;;;;5052547;28;20385;-74
2023/03/01 04:31:13;;;;;;;42.90;26.52;;;-0.10;69.00;;;;;;5052498;28;20151;-76
2023/03/01 04:33:40;;;;;;;38.78;25.55;;;-0.10;69.00;;;;;;5052827;28;20040;-74
2023/03/01 04:36:08;;;;;;;39.65;26.88;;;-0.20;69.10;;;;;;5052127;28;20505;-74
2023/03/01 04:38:36;;;;;;;38.00;24.38;;;-0.20;69.30;;;;;;5052621;28;20090;-74
2023/03/01 04:41:03;;;;;;;43.28;25.77;;;-0.30;69.60;;;;;;5052513;28;20017;-74
2023/03/01 04:43:29;;;;;;;41.58;25.52;;;-0.30;70.10;;;;;;5052519;28;20028;-74
2023/03/01 04:45:59;;;;;;;39.17;25.88;;;-0.30;70.10;;;;;;5034485;28;20409;-74
2023/03/01 04:48:25;;;;;;;37.35;25.05;;;-0.30;70.10;;;;;;5052468;28;20040;-74
2023/03/01 04:50:50;;;;;;;39.78;24.90;;;-0.30;70.00;;;;;;5053773;28;20021;-74
2023/03/01 04:53:16;;;;;;;42.65;26.95;;;-0.20;69.70;;;;;;5038678;28;20563;-74
2023/03/01 04:55:41;;;;;;;39.00;25.42;;;-0.30;70.00;;;;;;5056411;28;20461;-74
2023/03/01 04:58:06;;;;;;;38.75;25.05;;;-0.40;70.20;;;;;;5056587;28;20469;-74
2023/03/01 05:00:32;;;;;;;36.75;24.55;;;-0.40;70.40;;;;;;5056343;28;20087;-74
2023/03/01 05:03:00;;;;;;;45.92;28.15;;;-0.50;70.80;;;;;;5063440;28;20055;-75
2023/03/01 05:05:34;;;;;;;42.00;28.02;;;-0.50;70.90;;;;;;5057017;28;20048;-74
2023/03/01 05:08:01;;;;;;;42.45;27.23;;;-0.50;71.40;;;;;;5056733;28;20103;-75
2023/03/01 05:10:29;;;;;;;48.17;29.52;;;-0.60;71.80;;;;;;5056345;28;20079;-75
2023/03/01 05:12:57;;;;;;;44.95;27.70;;;-0.50;71.80;;;;;;5056239;28;20036;-75
2023/03/01 05:15:25;;;;;;;39.83;27.23;;;-0.60;71.40;;;;;;5056256;28;20022;-74
2023/03/01 05:17:51;;;;;;;46.75;29.95;;;-0.60;72.10;;;;;;5056051;28;20053;-74
2023/03/01 05:20:17;;;;;;;44.00;27.92;;;-0.70;72.40;;;;;;5056235;28;20101;-74
2023/03/01 05:22:43;;;;;;;44.38;28.63;;;-0.60;72.50;;;;;;5056192;28;20024;-75
2023/03/01 05:25:09;;;;;;;39.97;26.65;;;-0.70;72.50;;;;;;5056080;28;20028;-74
2023/03/01 05:27:35;;;;;;;44.45;27.75;;;-0.70;72.60;;;;;;5056001;28;20095;-74
2023/03/01 05:30:13;;;;;;;44.85;27.27;;;-0.60;72.70;;;;;;5038537;28;20029;-74
2023/03/01 05:32:45;;;;;;;67.03;36.50;;;-0.60;72.40;;;;;;5055914;28;20474;-75
2023/03/01 05:35:13;;;;;;;68.30;36.08;;;-0.60;72.50;;;;;;5055927;28;20048;-75
2023/03/01 05:37:42;;;;;;;57.20;32.92;;;-0.60;72.40;;;;;;5055422;28;20029;-75
2023/03/01 05:40:15;;;;;;;58.78;32.00;;;-0.50;72.20;;;;;;5055677;28;20025;-73
2023/03/01 05:42:42;;;;;;;70.20;35.55;;;-0.50;71.90;;;;;;5055710;28;20033;-72
2023/03/01 05:45:09;;;;;;;58.58;32.45;;;-0.60;72.00;;;;;;5037752;28;20031;-75
2023/03/01 05:47:35;;;;;;;42.35;26.13;;;-0.50;72.10;;;;;;5055490;28;20087;-74
2023/03/01 05:50:01;;;;;;;42.67;27.48;;;-0.60;72.30;;;;;;5055975;28;20025;-74
2023/03/01 05:52:26;;;;;;;41.90;27.85;;;-0.60;72.30;;;;;;5055434;28;20115;-74
2023/03/01 05:54:52;;;;;;;43.47;27.65;;;-0.50;72.10;;;;;;5037531;28;20083;-74
2023/03/01 05:57:18;;;;;;;40.58;28.35;;;-0.60;72.40;;;;;;5055367;28;20028;-74
2023/03/01 05:59:43;;;;;;;42.78;28.17;;;-0.70;72.70;;;;;;5055393;28;20377;-75
2023/03/01 06:02:09;;;;;;;42.55;27.52;;;-0.60;72.80;;;;;;5054681;28;20029;-75
2023/03/01 06:04:34;;;;;;;42.10;27.40;;;-0.50;72.80;;;;;;5055288;28;20032;-74
2023/03/01 06:07:00;;;;;;;43.38;26.77;;;-0.50;72.60;;;;;;5055178;28;20040;-75
2023/03/01 06:09:25;;;;;;;46.60;27.55;;;-0.50;72.60;;;;;;5037107;28;20540;-75
2023/03/01 06:11:51;;;;;;;43.65;27.83;;;-0.40;72.40;;;;;;5054942;28;20108;-74
2023/03/01 06:14:17;;;;;;;46.22;27.35;;;-0.40;72.30;;;;;;5054899;28;20021;-74
2023/03/01 06:16:42;;;;;;;44.72;29.13;;;-0.30;72.00;;;;;;5054884;28;20057;-75
2023/03/01 06:19:08;;;;;;;43.70;26.00;;;-0.30;72.00;;;;;;5054839;28;20041;-75
2023/03/01 06:21:33;;;;;;;42.20;26.83;;;-0.30;72.10;;;;;;5054611;28;20036;-74
2023/03/01 06:23:59;;;;;;;43.60;27.50;;;-0.30;71.90;;;;;;5054730;28;20029;-75
2023/03/01 06:26:24;;;;;;;43.45;28.17;;;-0.20;71.80;;;;;;5036352;28;20021;-74
2023/03/01 06:28:50;;;;;;;42.22;26.85;;;-0.20;71.80;;;;;;5053964;28;20024;-73
2023/03/01 06:31:15;;;;;;;40.60;27.02;;;-0.20;71.80;;;;;;5054079;28;20557;-76
2023/03/01 06:33:41;;;;;;;41.15;26.70;;;-0.20;71.90;;;;;;5054405;28;20393;-73
2023/03/01 06:36:07;;;;;;;42.10;25.75;;;-0.20;72.00;;;;;;5054142;28;20031;-74
2023/03/01 06:38:33;;;;;;;40.88;27.23;;;-0.10;72.00;;;;;;5054179;28;20037;-73
2023/03/01 06:40:59;;;;;;;38.38;25.92;;;-0.10;71.70;;;;;;5054369;28;20078;-73
2023/03/01 06:43:24;;;;;;;43.58;27.52;;;-0.20;71.70;;;;;;5054380;28;20428;-73
2023/03/01 06:45:50;;;;;;;43.00;27.08;;;-0.10;71.70;;;;;;5054158;28;20032;-73
2023/03/01 06:48:15;;;;;;;36.42;24.90;;;-0.20;71.70;;;;;;5054338;28;20021;-73
2023/03/01 06:50:41;;;;;;;42.05;26.42;;;-0.10;72.10;;;;;;5054106;28;20082;-74
2023/03/01 06:53:06;;;;;;;44.45;26.48;;;-0.10;71.90;;;;;;5053709;28;20071;-74
2023/03/01 06:55:32;;;;;;;39.35;25.52;;;-0.10;71.80;;;;;;5054096;28;20024;-74
2023/03/01 06:57:59;;;;;;;40.65;26.27;;;0.00;71.60;;;;;;5053790;28;20037;-74
2023/03/01 07:00:26;;;;;;;39.25;25.50;;;0.00;71.50;;;;;;5035855;28;20499;-73
2023/03/01 07:02:51;;;;;;;40.58;25.92;;;0.00;71.30;;;;;;5053861;28;20473;-73
2023/03/01 07:05:17;;;;;;;40.40;26.33;;;0.00;71.10;;;;;;5054010;28;20025;-74
2023/03/01 07:07:43;;;;;;;40.65;25.88;;;0.00;71.10;;;;;;5053979;28;20053;-74
2023/03/01 07:10:09;;;;;;;40.65;27.02;;;0.00;72.00;;;;;;5054000;28;20033;-79
2023/03/01 07:12:35;;;;;;;39.92;26.48;;;0.10;71.20;;;;;;5053409;28;20524;-73
2023/03/01 07:15:00;;;;;;;45.03;27.30;;;0.10;71.10;;;;;;5052718;28;20025;-74
2023/03/01 07:17:26;;;;;;;40.78;26.92;;;0.10;71.20;;;;;;5053229;28;20033;-74
2023/03/01 07:19:51;;;;;;;45.22;28.20;;;0.10;71.00;;;;;;5035763;28;20029;-78
2023/03/01 07:22:17;;;;;;;42.65;27.48;;;0.20;70.90;;;;;;5035546;28;20029;-74
2023/03/01 07:24:43;;;;;;;43.08;27.20;;;0.20;71.00;;;;;;5053609;28;20059;-74
2023/03/01 07:27:09;;;;;;;45.97;28.58;;;0.10;71.10;;;;;;5053471;28;20100;-78
2023/03/01 07:29:36;;;;;;;45.03;28.33;;;0.00;71.40;;;;;;5053498;28;20028;-76
2023/03/01 07:32:02;;;;;;;43.97;28.73;;;0.00;71.70;;;;;;5053133;28;20029;-77
2023/03/01 07:34:27;;;;;;;42.28;28.08;;;0.00;71.60;;;;;;5053196;28;20021;-77
2023/03/01 07:36:53;;;;;;;41.70;27.38;;;0.00;71.80;;;;;;5052719;28;20028;-81
2023/03/01 07:39:19;;;;;;;38.72;26.13;;;0.00;71.80;;;;;;5053504;28;20029;-73
2023/03/01 07:41:44;;;;;;;41.92;27.52;;;0.10;71.70;;;;;;5053272;28;20028;-74
2023/03/01 07:44:10;;;;;;;42.70;26.95;;;0.10;71.60;;;;;;5052921;28;20394;-74
2023/03/01 07:46:36;;;;;;;46.33;28.17;;;0.10;71.80;;;;;;5052799;28;20029;-74
2023/03/01 07:49:01;;;;;;;44.08;27.42;;;0.10;71.80;;;;;;5053044;28;20367;-73
2023/03/01 07:51:27;;;;;;;43.53;28.30;;;0.20;71.50;;;;;;5059188;28;20021;-73
2023/03/01 07:53:52;;;;;;;47.88;29.88;;;0.20;71.30;;;;;;5053569;28;20037;-74
2023/03/01 07:56:19;;;;;;;46.00;28.52;;;0.30;71.20;;;;;;5035441;28;20041;-74
2023/03/01 07:58:45;;;;;;;53.95;25.65;;;0.40;71.10;;;;;;5053022;28;20025;-74
2023/03/01 08:01:14;;;;;;;54.90;31.95;;;0.70;85.30;;;;;;5052416;28;20020;-74
2023/03/01 08:03:39;;;;;;;45.72;29.13;;;1.30;89.80;;;;;;5052689;28;20460;-74
2023/03/01 08:06:08;;;;;;;41.47;27.05;;;1.70;84.40;;;;;;5052668;28;20101;-73
2023/03/01 08:08:34;;;;;;;38.50;25.80;;;2.10;76.80;;;;;;5052361;28;20061;-74
2023/03/01 08:11:00;;;;;;;37.80;25.58;;;2.40;73.60;;;;;;5052468;28;20060;-74
2023/03/01 08:13:26;;;;;;;43.47;26.45;;;2.60;71.10;;;;;;5052414;28;20131;-75
2023/03/01 08:15:52;;;;;;;41.95;27.23;;;3.00;69.60;;;;;;5052410;28;20101;-76
2023/03/01 08:18:20;;;;;;;39.65;27.25;;;3.20;67.50;;;;;;5052723;28;20067;-75
2023/03/01 08:20:46;;;;;;;46.45;27.00;;;3.10;66.00;;;;;;5052657;28;20021;-75
2023/03/01 08:23:12;;;;;;;40.47;25.00;;;3.10;65.30;;;;;;5052622;28;20021;-76
2023/03/01 08:25:38;;;;;;;38.45;25.73;;;3.20;65.40;;;;;;5052336;28;20469;-76
2023/03/01 08:28:05;;;;;;;37.40;23.85;;;3.40;65.20;;;;;;5052327;28;20025;-76
2023/03/01 08:30:30;;;;;;;38.15;24.25;;;3.60;64.90;;;;;;5052435;28;20039;-73
2023/03/01 08:32:56;;;;;;;34.65;21.80;;;3.50;63.00;;;;;;5052433;28;20116;-76
2023/03/01 08:35:22;;;;;;;44.50;27.13;;;3.30;62.50;;;;;;5052466;28;20477;-75
2023/03/01 08:37:47;;;;;;;39.90;24.27;;;3.30;63.20;;;;;;5052252;28;20052;-75
2023/03/01 08:40:13;;;;;;;37.83;23.75;;;3.30;63.60;;;;;;5052514;28;20418;-76
2023/03/01 08:42:42;;;;;;;37.20;22.83;;;3.20;64.20;;;;;;5052476;28;20024;-77
2023/03/01 08:45:08;;;;;;;32.15;22.35;;;3.20;63.30;;;;;;5034375;28;20021;-79
2023/03/01 08:47:34;;;;;;;34.08;22.52;;;3.00;62.90;;;;;;5052140;28;20025;-74
2023/03/01 08:50:00;;;;;;;38.63;23.10;;;2.70;63.60;;;;;;5052435;28;20520;-74
2023/03/01 08:52:26;;;;;;;36.58;23.83;;;2.60;63.90;;;;;;5052927;28;20484;-76
2023/03/01 08:54:52;;;;;;;33.53;22.10;;;2.30;64.90;;;;;;5064385;28;20051;-73
2023/03/01 08:57:18;;;;;;;36.97;23.73;;;2.30;65.30;;;;;;5056526;28;20060;-73
2023/03/01 08:59:44;;;;;;;40.67;24.10;;;2.20;65.60;;;;;;5052488;28;20021;-73
2023/03/01 09:02:13;;;;;;;44.70;24.75;;;2.20;65.60;;;;;;5052137;28;20025;-75
2023/03/01 09:04:40;;;;;;;42.28;25.70;;;2.20;66.20;;;;;;5052460;28;20366;-77
2023/03/01 09:07:06;;;;;;;40.90;25.77;;;2.10;66.40;;;;;;5052333;28;20021;-72
2023/03/01 09:09:31;;;;;;;42.95;23.80;;;2.00;66.60;;;;;;5052137;28;20056;-73
2023/03/01 09:11:57;;;;;;;39.72;25.33;;;2.00;66.70;;;;;;5051917;28;20117;-74
2023/03/01 09:14:23;;;;;;;41.50;24.42;;;1.90;67.10;;;;;;5052242;28;20037;-73
2023/03/01 09:16:48;;;;;;;43.30;26.55;;;1.90;67.00;;;;;;5052327;28;20382;-73
2023/03/01 09:19:14;;;;;;;43.67;26.60;;;1.70;67.20;;;;;;5051981;28;20098;-74
2023/03/01 09:21:40;;;;;;;43.38;26.35;;;1.70;67.80;;;;;;5052143;28;20029;-73
2023/03/01 09:24:13;;;;;;;42.92;26.42;;;1.70;68.60;;;;;;5051744;28;20021;-73
2023/03/01 09:26:38;;;;;;;47.70;27.40;;;1.70;67.70;;;;;;5052138;28;20097;-73
2023/03/01 09:29:04;;;;;;;43.67;26.80;;;1.70;67.80;;;;;;5033777;28;20052;-74
2023/03/01 09:31:30;;;;;;;45.05;26.02;;;1.80;67.80;;;;;;5051571;28;20048;-73
2023/03/01 09:33:55;;;;;;;50.72;27.45;;;1.90;67.50;;;;;;5051901;28;20025;-74
2023/03/01 09:36:25;;;;;;;44.95;27.17;;;2.00;67.20;;;;;;5051949;28;20029;-75
2023/03/01 09:38:52;;;;;;;42.20;26.08;;;2.00;66.80;;;;;;5054492;28;20028;-77
2023/03/01 09:41:28;;;;;;;42.20;27.15;;;2.10;66.50;;;;;;5037571;28;20021;-77
2023/03/01 09:44:21;;;;;;;43.72;27.25;;;2.20;66.00;;;;;;5047456;28;20052;-78
2023/03/01 09:46:47;;;;;;;43.28;25.80;;;2.30;66.00;;;;;;4989369;28;20036;-77
2023/03/01 09:49:17;;;;;;;40.55;25.75;;;2.50;66.00;;;;;;5055531;28;20025;-79
2023/03/01 09:51:54;;;;;;;37.03;24.02;;;2.60;65.50;;;;;;5055381;28;20033;-78
2023/03/01 09:54:20;;;;;;;41.70;24.98;;;2.70;65.10;;;;;;5055291;28;20036;-79
2023/03/01 09:56:57;;;;;;;36.28;23.48;;;2.80;64.70;;;;;;5037347;28;20021;-75
2023/03/01 09:59:33;;;;;;;39.17;24.35;;;3.00;64.60;;;;;;5055491;28;20032;-73
2023/03/01 10:02:10;;;;;;;36.20;23.27;;;3.20;63.90;;;;;;5055192;28;20024;-73
2023/03/01 10:04:47;;;;;;;37.60;23.65;;;3.30;62.60;;;;;;5055185;28;20178;-73
2023/03/01 10:07:36;;;;;;;35.95;22.05;;;3.50;62.30;;;;;;5055150;28;20021;-74
2023/03/01 10:10:07;;;;;;;29.95;18.83;;;3.70;60.70;;;;;;5054949;28;20074;-73
2023/03/01 10:12:40;;;;;;;29.98;19.58;;;3.80;59.10;;;;;;5054619;28;20040;-73
2023/03/01 10:15:12;;;;;;;28.05;18.92;;;3.90;58.50;;;;;;5054710;28;20377;-74
2023/03/01 10:17:46;;;;;;;28.20;18.42;;;4.00;57.40;;;;;;5054244;28;20045;-73
2023/03/01 10:20:17;;;;;;;29.20;19.38;;;4.10;56.60;;;;;;5036820;28;20116;-74
2023/03/01 10:22:46;;;;;;;28.33;18.42;;;4.20;56.30;;;;;;5054690;28;20037;-74
2023/03/01 10:25:15;;;;;;;28.00;18.45;;;4.30;55.50;;;;;;5054672;28;20024;-74
2023/03/01 10:27:59;;;;;;;29.83;19.45;;;4.20;54.90;;;;;;5054671;28;20028;-74
2023/03/01 10:30:43;;;;;;;30.10;18.52;;;4.30;55.10;;;;;;5054897;28;20017;-75
2023/03/01 10:33:20;;;;;;;29.50;17.77;;;4.40;54.50;;;;;;5054298;28;20029;-73
2023/03/01 10:35:47;;;;;;;30.77;19.10;;;4.40;54.10;;;;;;5054433;28;20104;-73
2023/03/01 10:38:14;;;;;;;29.15;19.13;;;4.40;54.00;;;;;;5054564;28;20021;-74
2023/03/01 10:40:56;;;;;;;33.58;21.50;;;4.50;53.90;;;;;;5054439;28;20029;-75
2023/03/01 10:43:24;;;;;;;32.10;20.40;;;4.50;53.70;;;;;;5054166;28;20083;-74
2023/03/01 10:45:49;;;;;;;33.15;20.27;;;4.70;53.50;;;;;;5054152;28;20029;-74
2023/03/01 10:48:28;;;;;;;27.85;17.17;;;4.90;53.00;;;;;;5054183;28;20027;-77
2023/03/01 10:50:59;;;;;;;29.83;19.42;;;5.10;51.70;;;;;;5054262;28;20032;-74
2023/03/01 10:53:37;;;;;;;28.10;18.73;;;5.20;51.60;;;;;;5036369;28;20500;-75
2023/03/01 10:56:08;;;;;;;34.88;19.67;;;5.40;50.80;;;;;;5054082;28;20024;-73
2023/03/01 10:58:36;;;;;;;28.95;17.67;;;5.50;50.70;;;;;;5054194;28;20104;-73
2023/03/01 11:01:22;;;;;;;26.48;17.33;;;5.60;50.00;;;;;;5053830;28;20017;-74
2023/03/01 11:04:13;;;;;;;34.25;20.35;;;5.90;49.70;;;;;;5039714;28;20044;-73
2023/03/01 11:06:41;;;;;;;31.13;17.83;;;6.30;48.70;;;;;;5041589;28;20378;-76
2023/03/01 11:09:21;;;;;;;30.77;17.60;;;6.80;46.90;;;;;;5059523;28;20082;-74
2023/03/01 11:11:55;;;;;;;27.85;17.20;;;7.10;45.40;;;;;;5054272;28;20096;-77
2023/03/01 11:14:40;;;;;;;26.63;16.20;;;7.50;44.90;;;;;;5053932;28;20033;-73
2023/03/01 11:17:15;;;;;;;25.23;16.93;;;7.80;44.30;;;;;;5036346;28;20385;-74
2023/03/01 11:19:41;;;;;;;27.15;17.95;;;8.30;43.50;;;;;;5035936;28;20067;-74
2023/03/01 11:22:19;;;;;;;24.40;16.65;;;8.70;42.40;;;;;;5053715;28;20056;-77
2023/03/01 11:24:49;;;;;;;26.48;16.58;;;9.10;41.50;;;;;;5035888;28;20063;-80
2023/03/01 11:27:33;;;;;;;29.75;17.85;;;9.40;41.20;;;;;;5053709;28;20036;-78
2023/03/01 11:30:31;;;;;;;27.15;17.40;;;9.60;39.80;;;;;;5053783;28;20025;-73
2023/03/01 11:33:11;;;;;;;25.63;16.60;;;9.80;38.90;;;;;;5052613;28;20040;-74
2023/03/01 11:35:44;;;;;;;24.20;16.83;;;10.00;38.20;;;;;;5053651;28;20033;-79
2023/03/01 11:38:25;;;;;;;25.05;16.15;;;10.10;37.70;;;;;;5053338;28;20489;-74
2023/03/01 11:40:58;;;;;;;24.73;15.68;;;10.00;37.90;;;;;;5053321;28;20433;-76
2023/03/01 11:43:35;;;;;;;24.38;15.43;;;9.90;38.00;;;;;;5053777;28;20021;-80
2023/03/01 11:46:32;;;;;;;23.85;15.63;;;10.10;37.90;;;;;;5053222;28;20051;-74
2023/03/01 11:49:24;;;;;;;23.67;15.25;;;10.30;37.90;;;;;;5052818;28;20013;-74
2023/03/01 11:52:09;;;;;;;23.58;15.90;;;10.40;37.10;;;;;;5052648;28;20136;-72
2023/03/01 11:55:10;;;;;;;21.15;14.85;;;10.80;36.90;;;;;;5052945;28;20108;-73
2023/03/01 11:57:43;;;;;;;22.50;15.25;;;11.20;36.60;;;;;;4991170;28;20533;-73
2023/03/01 12:00:36;;;;;;;23.48;15.68;;;11.50;35.30;;;;;;5042920;28;20388;-73
2023/03/01 12:03:01;;;;;;;23.23;16.20;;;11.70;34.70;;;;;;5052802;28;20021;-73
2023/03/01 12:05:52;;;;;;;19.90;15.05;;;11.90;34.50;;;;;;5035039;28;20086;-72
2023/03/01 12:08:40;;;;;;;24.83;15.20;;;12.10;34.20;;;;;;5052759;28;20029;-75
2023/03/01 12:11:38;;;;;;;19.15;14.18;;;12.20;33.30;;;;;;5052751;28;20424;-73
2023/03/01 12:14:39;;;;;;;23.35;15.32;;;11.90;33.20;;;;;;5052922;28;20553;-80
2023/03/01 12:17:27;;;;;;;22.95;15.00;;;11.90;33.80;;;;;;5008581;28;20040;-83
2023/03/01 12:19:55;;;;;;;23.70;15.70;;;11.70;33.60;;;;;;5037047;28;20388;-79
2023/03/01 12:22:30;;;;;;;26.70;15.15;;;11.60;33.60;;;;;;5057284;28;20029;-84
2023/03/01 12:25:15;;;;;;;;;;;11.60;33.90;;;;;;5037387;28;20036;-80
2023/03/01 12:28:02;;;;;;;21.38;13.63;;;11.70;34.00;;;;;;5035850;28;19908;-80
2023/03/01 12:30:56;;;;;;;21.52;15.85;;;12.00;33.90;;;;;;5035441;28;20025;-73
2023/03/01 12:33:31;;;;;;;23.85;15.55;;;12.30;33.10;;;;;;5036192;28;20095;-86
2023/03/01 12:36:18;;;;;;;22.73;15.70;;;12.20;33.10;;;;;;5036760;28;20021;-79
2023/03/01 12:39:06;;;;;;;20.50;14.27;;;12.30;33.30;;;;;;5052770;28;20036;-77
2023/03/01 12:41:41;;;;;;;27.40;17.00;;;12.50;34.50;;;;;;5052183;28;20063;-77
2023/03/01 12:44:31;;;;;;;22.70;14.98;;;12.80;34.30;;;;;;5063743;28;20070;-77